Time;durP1;ratioP1;P1;durP2;ratioP2;P2;SDS_P1;SDS_P2;PMS_P1;PMS_P2;Temp;Humidity;BMP_temperature;BMP_pressure;BME280_temperature;BME280_humidity;BME280_pressure;Samples;Min_cycle;Max_cycle;Signal;HPM_P1;HPM_P2
2022/09/23 00:00:30;;;;;;;6.40;5.03;;;5.60;99.90;;;;;;5123639;28;20230;-85
2022/09/23 00:02:56;;;;;;;8.53;5.33;;;5.60;99.90;;;;;;5124212;28;20274;-86
2022/09/23 00:05:23;;;;;;;6.20;4.60;;;5.60;99.90;;;;;;5122635;28;20177;-85
2022/09/23 00:07:48;;;;;;;5.57;4.10;;;5.60;99.90;;;;;;5122595;28;20173;-85
2022/09/23 00:10:14;;;;;;;7.97;4.43;;;5.50;99.90;;;;;;5122383;28;20214;-86
2022/09/23 00:12:40;;;;;;;5.50;4.40;;;5.40;99.90;;;;;;5122569;28;20175;-85
2022/09/23 00:15:06;;;;;;;7.13;4.83;;;5.40;99.90;;;;;;5122620;28;20221;-85
2022/09/23 00:17:31;;;;;;;7.20;4.93;;;5.40;99.90;;;;;;5123847;28;20165;-86
2022/09/23 00:19:58;;;;;;;6.90;4.70;;;;;;;;;;5122700;28;20196;-85
2022/09/23 00:22:23;;;;;;;7.77;4.70;;;5.30;99.90;;;;;;5122665;28;20227;-86
2022/09/23 00:24:49;;;;;;;6.10;4.63;;;;;;;;;;5121878;28;20236;-85
2022/09/23 00:27:15;;;;;;;5.90;4.93;;;5.30;99.90;;;;;;5123655;28;20228;-85
2022/09/23 00:29:41;;;;;;;5.57;4.87;;;5.40;99.90;;;;;;5122721;28;20187;-85
2022/09/23 00:32:06;;;;;;;7.00;4.73;;;5.40;99.90;;;;;;5122709;28;20179;-85
2022/09/23 00:34:33;;;;;;;5.93;4.67;;;;;;;;;;5122497;28;20196;-85
2022/09/23 00:36:58;;;;;;;5.50;4.07;;;5.30;99.90;;;;;;5123141;28;20168;-84
2022/09/23 00:39:25;;;;;;;5.90;4.63;;;5.30;99.90;;;;;;5121822;28;20547;-85
2022/09/23 00:41:51;;;;;;;4.70;4.20;;;5.30;99.90;;;;;;5121585;28;20178;-85
2022/09/23 00:44:39;;;;;;;6.53;4.80;;;5.30;99.90;;;;;;5120597;28;20202;-85
2022/09/23 00:47:10;;;;;;;7.50;4.50;;;5.30;99.90;;;;;;5120873;28;20175;-85
2022/09/23 00:49:35;;;;;;;5.17;4.37;;;5.30;99.90;;;;;;5120451;28;20172;-85
2022/09/23 00:52:07;;;;;;;5.00;4.40;;;5.20;99.90;;;;;;5120111;28;20186;-85
2022/09/23 00:54:33;;;;;;;5.20;4.73;;;5.20;99.90;;;;;;5120322;28;20282;-85
2022/09/23 00:57:00;;;;;;;5.70;4.77;;;5.10;99.90;;;;;;5118613;28;20211;-85
2022/09/23 00:59:27;;;;;;;5.87;4.63;;;5.10;99.90;;;;;;5119732;28;20689;-85
2022/09/23 05:42:37;;;;;;;5.07;3.37;;;4.50;99.90;;;;;;5079256;28;20547;-87
2022/09/23 05:45:03;;;;;;;3.97;3.57;;;4.60;99.90;;;;;;5076500;28;20646;-86
2022/09/23 07:03:10;;;;;;;11.20;6.70;;;7.00;99.90;;;;;;5118356;27;20281;-87
2022/09/23 07:05:37;;;;;;;8.27;5.43;;;7.00;99.90;;;;;;5116047;28;20201;-87
2022/09/23 07:08:08;;;;;;;12.37;6.83;;;7.00;99.90;;;;;;5098634;28;20178;-88
2022/09/23 07:10:35;;;;;;;8.80;5.33;;;7.10;99.90;;;;;;5098239;28;20225;-86
2022/09/23 07:13:02;;;;;;;8.50;4.27;;;7.10;99.90;;;;;;5115577;28;20196;-86
2022/09/23 07:15:27;;;;;;;6.90;4.20;;;7.30;99.90;;;;;;5115671;28;20172;-86
2022/09/23 07:17:53;;;;;;;10.73;7.93;;;7.40;99.90;;;;;;5097565;28;20523;-86
2022/09/23 07:20:20;;;;;;;7.47;5.23;;;7.50;99.90;;;;;;5096359;28;20544;-86
2022/09/23 07:22:52;;;;;;;6.97;4.40;;;7.60;99.90;;;;;;5095988;28;20209;-87
2022/09/23 07:25:18;;;;;;;3.70;3.30;;;7.70;99.90;;;;;;5096987;28;20175;-87
2022/09/23 07:27:46;;;;;;;5.37;3.60;;;7.90;99.90;;;;;;5098379;28;20177;-87
2022/09/23 07:30:13;;;;;;;4.30;2.53;;;8.00;99.90;;;;;;5116201;28;20169;-87
2022/09/23 07:32:39;;;;;;;3.70;2.70;;;8.20;99.90;;;;;;5098783;28;20180;-87
2022/09/23 07:35:05;;;;;;;5.50;3.17;;;8.30;99.90;;;;;;5097677;28;20181;-86
2022/09/23 07:37:31;;;;;;;3.77;2.90;;;8.50;99.90;;;;;;5097432;28;20189;-88
2022/09/23 07:39:57;;;;;;;10.20;2.93;;;8.70;99.90;;;;;;5097295;28;20200;-87
2022/09/23 07:42:22;;;;;;;3.03;2.73;;;8.90;99.90;;;;;;5096234;28;20209;-85
2022/09/23 07:44:48;;;;;;;6.03;3.40;;;9.10;99.90;;;;;;5096843;28;20193;-86
2022/09/23 07:47:14;;;;;;;4.77;2.73;;;9.30;99.90;;;;;;5114207;28;20639;-88
2022/09/23 07:49:40;;;;;;;4.80;3.13;;;9.50;99.90;;;;;;5113733;28;20179;-88
2022/09/23 07:52:06;;;;;;;4.23;2.80;;;9.90;99.90;;;;;;5114853;28;20262;-85
2022/09/23 07:54:32;;;;;;;5.37;3.07;;;10.20;99.90;;;;;;5096117;28;20230;-86
2022/09/23 07:56:58;;;;;;;4.90;2.70;;;10.50;99.90;;;;;;5096080;28;20668;-85
2022/09/23 07:59:25;;;;;;;4.40;2.23;;;10.80;99.90;;;;;;5096103;28;20180;-86
2022/09/23 08:01:52;;;;;;;3.43;2.20;;;11.20;99.90;;;;;;5097197;28;20650;-86
2022/09/23 08:04:22;;;;;;;7.57;2.53;;;11.60;99.90;;;;;;5097780;28;20234;-86
2022/09/23 08:06:54;;;;;;;3.03;2.27;;;11.90;99.90;;;;;;5098032;28;20207;-86
2022/09/23 08:09:22;;;;;;;3.00;2.03;;;12.20;99.90;;;;;;5096409;28;20350;-86
2022/09/23 08:11:49;;;;;;;3.90;2.20;;;12.50;99.90;;;;;;5113504;28;20191;-86
2022/09/23 08:14:16;;;;;;;4.20;2.00;;;12.80;99.90;;;;;;5082578;28;20224;-86
2022/09/23 08:16:44;;;;;;;4.20;2.40;;;13.10;99.90;;;;;;5081403;28;20271;-87
2022/09/23 08:19:10;;;;;;;4.33;2.10;;;13.40;99.90;;;;;;5100021;28;20179;-86
2022/09/23 08:21:38;;;;;;;6.70;2.97;;;13.70;99.90;;;;;;5099748;28;20206;-86
2022/09/23 08:24:04;;;;;;;5.47;2.20;;;13.80;99.90;;;;;;5082935;28;20196;-87
2022/09/23 08:26:33;;;;;;;3.67;3.03;;;14.00;99.90;;;;;;5081791;28;20180;-85
2022/09/23 08:28:59;;;;;;;2.70;1.90;;;14.20;99.90;;;;;;5081762;28;20176;-88
2022/09/23 08:31:25;;;;;;;3.97;2.33;;;14.50;99.90;;;;;;5100235;28;20552;-86
2022/09/23 08:33:55;;;;;;;2.50;2.17;;;14.80;99.90;;;;;;5099674;28;20201;-85
2022/09/23 08:36:21;;;;;;;4.03;2.00;;;15.20;99.90;;;;;;5102257;28;20683;-87
2022/09/23 08:38:46;;;;;;;4.03;2.40;;;15.80;99.90;;;;;;5083426;28;20213;-87
2022/09/23 08:41:50;;;;;;;5.73;2.53;;;16.20;99.90;;;;;;5083596;28;20267;-87
2022/09/23 08:44:24;;;;;;;3.10;2.17;;;16.60;99.90;;;;;;5083632;28;20199;-89
2022/09/23 08:47:12;;;;;;;4.17;2.17;;;17.00;99.90;;;;;;5085092;28;20164;-87
2022/09/23 08:50:06;;;;;;;6.50;2.90;;;17.40;99.90;;;;;;5103050;28;20164;-86
2022/09/23 08:52:53;;;;;;;4.43;2.83;;;17.80;99.90;;;;;;5085167;28;20169;-89
2022/09/23 08:55:28;;;;;;;3.80;2.63;;;18.10;99.90;;;;;;5084980;28;20195;-88
2022/09/23 08:58:18;;;;;;;3.30;2.90;;;18.30;99.90;;;;;;5103101;28;20172;-87
2022/09/23 09:01:11;;;;;;;3.93;2.63;;;18.10;99.90;;;;;;5084868;28;20195;-88
2022/09/23 09:04:01;;;;;;;3.30;2.53;;;17.90;99.90;;;;;;5102958;28;20257;-88
2022/09/23 09:06:40;;;;;;;3.80;3.27;;;17.80;99.90;;;;;;5065761;28;20192;-88
2022/09/23 09:09:32;;;;;;;5.03;3.03;;;17.90;99.90;;;;;;5086364;28;20270;-89
2022/09/23 09:12:09;;;;;;;6.23;4.33;;;18.10;99.90;;;;;;5088427;28;20176;-88
2022/09/23 09:14:43;;;;;;;4.90;4.03;;;18.40;99.90;;;;;;5098397;28;20192;-86
2022/09/23 09:17:16;;;;;;;4.93;4.13;;;18.80;99.90;;;;;;5120493;28;20157;-87
2022/09/23 09:19:55;;;;;;;5.80;3.67;;;19.20;99.90;;;;;;5101707;28;20176;-87
2022/09/23 09:22:56;;;;;;;5.37;3.80;;;19.40;99.90;;;;;;5109447;28;20198;-88
2022/09/23 09:25:28;;;;;;;5.33;4.50;;;19.40;99.90;;;;;;5082067;28;20171;-87
2022/09/23 09:27:56;;;;;;;4.60;3.50;;;19.40;99.90;;;;;;5083348;28;20178;-87
2022/09/23 09:30:23;;;;;;;5.77;3.93;;;19.60;99.90;;;;;;5082651;28;20230;-87
2022/09/23 09:33:09;;;;;;;7.53;3.80;;;19.90;99.90;;;;;;5080520;28;20256;-85
2022/09/23 09:35:41;;;;;;;4.27;3.27;;;20.10;99.90;;;;;;5080711;28;20551;-86
2022/09/23 09:38:06;;;;;;;6.57;3.90;;;20.20;99.90;;;;;;5079186;28;20172;-87
2022/09/23 09:40:33;;;;;;;7.17;3.53;;;20.30;99.90;;;;;;5083477;28;20572;-86
2022/09/23 09:43:03;;;;;;;4.70;3.43;;;20.00;99.90;;;;;;5101804;28;20667;-87
2022/09/23 09:45:36;;;;;;;5.43;3.40;;;19.80;99.90;;;;;;5081954;28;20190;-87
2022/09/23 09:48:19;;;;;;;3.60;3.30;;;20.10;99.90;;;;;;5081988;28;20180;-89
2022/09/23 09:50:46;;;;;;;5.30;3.60;;;20.50;99.90;;;;;;5082749;28;20199;-86
2022/09/23 09:53:30;;;;;;;4.37;3.10;;;20.70;99.90;;;;;;5082963;28;20209;-86
2022/09/23 09:56:06;;;;;;;7.13;4.10;;;20.10;99.90;;;;;;5101307;28;20175;-89
2022/09/23 09:58:52;;;;;;;5.27;3.50;;;19.60;99.90;;;;;;5079959;28;20179;-87
2022/09/23 10:01:22;;;;;;;4.27;3.13;;;19.50;99.90;;;;;;5100518;28;20206;-85
2022/09/23 10:03:49;;;;;;;3.80;3.10;;;19.60;99.90;;;;;;5083676;28;20198;-88
2022/09/23 10:06:23;;;;;;;6.00;3.50;;;19.90;99.90;;;;;;5083099;28;20170;-85
2022/09/23 10:09:18;;;;;;;7.17;3.47;;;19.90;99.90;;;;;;5083168;28;20254;-88
2022/09/23 10:12:10;;;;;;;4.50;2.73;;;20.20;99.90;;;;;;5082483;28;20176;-88
2022/09/23 10:14:36;;;;;;;5.63;3.17;;;20.30;99.90;;;;;;5092734;28;20209;-85
2022/09/23 10:17:05;;;;;;;2.87;2.53;;;20.10;99.90;;;;;;5088115;28;20201;-87
2022/09/23 10:19:33;;;;;;;3.63;2.80;;;19.90;99.90;;;;;;5086926;28;20231;-88
2022/09/23 10:22:13;;;;;;;5.07;2.87;;;20.20;99.90;;;;;;5085835;28;20196;-87
2022/09/23 10:24:46;;;;;;;4.33;2.63;;;20.40;99.90;;;;;;5085150;28;20197;-88
2022/09/23 10:27:11;;;;;;;3.07;2.57;;;20.40;99.90;;;;;;5086821;28;20177;-88
2022/09/23 10:29:49;;;;;;;4.47;2.50;;;20.60;99.90;;;;;;5086310;28;20219;-86
2022/09/23 10:32:42;;;;;;;5.17;2.80;;;20.90;99.90;;;;;;5086193;28;20580;-86
2022/09/23 10:35:09;;;;;;;5.40;3.00;;;20.90;99.90;;;;;;5085456;28;20173;-88
2022/09/23 10:37:40;;;;;;;4.53;3.10;;;21.00;99.90;;;;;;5085430;28;20181;-87
2022/09/23 10:46:38;;;;;;;4.87;2.20;;;21.40;99.90;;;;;;5103525;28;20183;-88
2022/09/23 10:49:30;;;;;;;4.13;2.13;;;21.40;99.90;;;;;;5086300;28;20270;-86
2022/09/23 10:52:14;;;;;;;5.03;2.37;;;21.80;99.90;;;;;;5084085;28;20664;-86
2022/09/23 10:55:13;;;;;;;3.23;2.40;;;22.00;99.90;;;;;;5085268;28;20291;-87
2022/09/23 10:58:06;;;;;;;3.47;2.03;;;22.10;99.30;;;;;;5085701;28;20198;-89
2022/09/23 11:01:03;;;;;;;4.20;2.67;;;21.80;99.20;;;;;;5103831;28;20160;-88
2022/09/23 11:03:47;;;;;;;4.57;2.50;;;21.40;98.90;;;;;;5103508;28;20215;-87
2022/09/23 11:07:01;;;;;;;2.90;2.30;;;21.30;98.70;;;;;;5084978;28;20626;-87
2022/09/23 11:10:06;;;;;;;3.70;2.00;;;21.20;99.90;;;;;;5041003;28;20200;-89
2022/09/23 11:12:54;;;;;;;3.23;2.10;;;21.20;98.80;;;;;;5085557;28;20181;-87
2022/09/23 11:15:38;;;;;;;3.13;1.67;;;21.40;99.90;;;;;;5084204;28;20179;-89
2022/09/23 11:18:09;;;;;;;3.20;1.93;;;21.60;96.40;;;;;;5100346;28;20188;-88
2022/09/23 11:20:59;;;;;;;9.73;4.27;;;21.40;96.40;;;;;;5090818;28;20177;-87
2022/09/23 11:23:58;;;;;;;8.57;4.90;;;21.10;96.90;;;;;;5110068;28;20265;-83
2022/09/23 11:27:03;;;;;;;3.43;1.80;;;20.80;98.00;;;;;;5091813;28;20175;-87
2022/09/23 11:30:21;;;;;;;4.63;2.27;;;20.80;99.60;;;;;;5112816;28;20170;-86
2022/09/23 11:33:03;;;;;;;4.97;2.37;;;21.20;97.90;;;;;;5075314;28;20187;-88
2022/09/23 11:36:01;;;;;;;5.63;2.40;;;21.20;97.80;;;;;;5090966;28;20174;-86
2022/09/23 11:38:36;;;;;;;3.23;2.00;;;21.20;96.30;;;;;;5091172;28;20231;-87
2022/09/23 11:41:17;;;;;;;2.13;1.93;;;21.00;96.70;;;;;;5091559;28;20616;-88
2022/09/23 11:43:50;;;;;;;6.33;2.37;;;21.00;96.80;;;;;;5090269;28;20221;-87
2022/09/23 11:46:22;;;;;;;4.13;2.10;;;21.00;98.00;;;;;;5088306;28;20173;-87
2022/09/23 11:49:13;;;;;;;3.83;2.37;;;20.80;97.20;;;;;;5091027;28;20157;-85
2022/09/23 11:51:44;;;;;;;5.30;2.10;;;20.50;96.60;;;;;;5097830;28;20177;-88
2022/09/23 11:54:25;;;;;;;5.37;2.07;;;20.10;97.00;;;;;;5098158;28;20193;-86
2022/09/23 11:56:59;;;;;;;5.10;2.70;;;20.00;97.70;;;;;;5093084;28;20269;-87
2022/09/23 11:59:27;;;;;;;4.70;2.77;;;20.00;98.30;;;;;;5096900;28;20194;-83
2022/09/23 12:02:02;;;;;;;4.13;2.13;;;19.90;97.20;;;;;;5114465;28;20204;-86
2022/09/23 12:04:32;;;;;;;3.50;2.20;;;19.90;99.90;;;;;;5113775;28;20186;-88
2022/09/23 12:07:28;;;;;;;4.20;2.37;;;19.90;98.50;;;;;;5093037;28;20334;-84
2022/09/23 12:10:00;;;;;;;3.63;2.53;;;19.90;98.00;;;;;;5114508;28;20172;-86
2022/09/23 12:12:30;;;;;;;3.53;2.50;;;20.00;99.60;;;;;;5094709;28;20184;-87
2022/09/23 12:15:23;;;;;;;3.37;2.40;;;20.10;99.20;;;;;;5112735;28;20200;-88
2022/09/23 12:18:09;;;;;;;7.20;2.40;;;20.10;99.20;;;;;;5110190;28;20210;-86
2022/09/23 12:20:54;;;;;;;3.63;2.57;;;20.30;98.80;;;;;;5092145;28;20180;-86
2022/09/23 12:23:41;;;;;;;5.07;2.50;;;20.80;98.60;;;;;;5092291;28;20231;-86
2022/09/23 12:26:16;;;;;;;2.93;2.10;;;20.80;98.60;;;;;;5091943;28;20180;-86
2022/09/23 12:28:46;;;;;;;3.93;2.40;;;21.20;98.50;;;;;;5107304;28;20637;-86
2022/09/23 12:31:35;;;;;;;2.83;2.47;;;21.20;98.00;;;;;;5090287;28;20551;-84
2022/09/23 12:34:15;;;;;;;4.60;2.20;;;21.20;99.30;;;;;;5089567;28;20232;-87
2022/09/23 12:36:41;;;;;;;4.97;2.33;;;21.40;98.70;;;;;;5106629;28;20180;-86
2022/09/23 12:39:23;;;;;;;3.90;2.17;;;21.80;99.90;;;;;;5088456;28;20178;-87
2022/09/23 12:41:58;;;;;;;2.67;2.10;;;22.10;99.10;;;;;;5106831;28;20192;-87
2022/09/23 12:44:40;;;;;;;3.23;2.00;;;22.30;99.60;;;;;;5087609;28;20711;-86
2022/09/23 12:47:24;;;;;;;3.47;2.40;;;22.20;97.90;;;;;;5093755;28;20236;-82
2022/09/23 12:49:52;;;;;;;5.20;2.27;;;21.70;96.70;;;;;;5090491;28;20242;-85
2022/09/23 12:52:18;;;;;;;3.80;2.27;;;21.30;98.10;;;;;;5090568;28;20178;-83
2022/09/23 12:54:49;;;;;;;5.53;2.20;;;21.00;97.60;;;;;;5088392;28;20202;-86
2022/09/23 12:57:32;;;;;;;6.03;3.10;;;20.70;98.40;;;;;;5080584;28;20620;-87
2022/09/23 12:59:58;;;;;;;6.30;4.47;;;20.70;98.20;;;;;;5099077;28;20180;-86
2022/09/23 13:02:46;;;;;;;7.57;5.13;;;20.70;98.20;;;;;;5080252;28;20212;-87
2022/09/23 13:08:19;;;;;;;5.43;2.70;;;21.30;99.60;;;;;;5099794;28;20179;-87
2022/09/23 13:10:57;;;;;;;5.90;2.73;;;21.60;97.10;;;;;;5081824;28;20172;-85
2022/09/23 13:13:30;;;;;;;3.57;2.60;;;21.50;97.20;;;;;;5082375;28;20195;-87
2022/09/23 13:16:21;;;;;;;8.40;4.57;;;21.60;99.90;;;;;;5082234;28;20189;-88
2022/09/23 13:18:54;;;;;;;4.00;2.80;;;22.10;98.20;;;;;;5082326;28;20172;-87
2022/09/23 13:21:41;;;;;;;6.73;3.10;;;22.30;99.00;;;;;;5084078;28;20188;-88
2022/09/23 13:24:22;;;;;;;5.97;2.93;;;22.80;99.10;;;;;;5081382;28;20196;-87
2022/09/23 13:27:08;;;;;;;3.77;1.90;;;23.40;98.40;;;;;;5081654;28;20171;-86
2022/09/23 13:29:53;;;;;;;5.43;2.90;;;23.50;97.10;;;;;;5100143;28;20166;-86
2022/09/23 13:32:20;;;;;;;3.30;1.90;;;23.90;96.50;;;;;;5080862;28;20174;-89
2022/09/23 13:35:00;;;;;;;5.67;1.70;;;24.20;97.50;;;;;;5099957;28;20540;-85
2022/09/23 13:37:53;;;;;;;2.00;1.80;;;24.80;95.70;;;;;;5089281;28;20165;-87
2022/09/23 13:40:25;;;;;;;3.33;1.70;;;24.60;97.50;;;;;;5087553;28;20220;-82
2022/09/23 13:43:07;;;;;;;4.30;1.97;;;24.70;93.80;;;;;;5094570;28;20292;-80
2022/09/23 13:45:38;;;;;;;3.80;2.60;;;24.10;93.10;;;;;;5108540;28;20153;-88
2022/09/23 13:48:14;;;;;;;4.77;2.83;;;23.30;92.60;;;;;;5112267;28;20223;-80
2022/09/23 13:50:46;;;;;;;7.70;1.90;;;23.00;93.40;;;;;;5108408;28;20154;-85
2022/09/23 13:53:26;;;;;;;3.03;1.97;;;22.70;94.20;;;;;;5102574;28;20233;-83
2022/09/23 13:56:00;;;;;;;2.70;1.70;;;22.40;96.00;;;;;;5088168;28;20173;-79
2022/09/23 13:58:28;;;;;;;4.70;2.27;;;22.60;93.60;;;;;;5109866;28;20175;-79
2022/09/23 14:00:54;;;;;;;3.90;2.87;;;22.90;94.20;;;;;;5110867;28;20171;-87
2022/09/23 14:03:36;;;;;;;4.77;2.90;;;23.10;93.90;;;;;;5097711;28;20184;-79
2022/09/23 14:06:10;;;;;;;3.13;2.40;;;23.70;92.90;;;;;;5116923;28;20149;-83
2022/09/23 14:08:40;;;;;;;3.00;2.00;;;24.00;95.70;;;;;;5103300;28;20206;-86
2022/09/23 14:11:06;;;;;;;3.00;1.40;;;24.60;94.30;;;;;;5078664;28;20192;-85
2022/09/23 14:13:40;;;;;;;3.73;1.93;;;24.50;90.50;;;;;;5097574;28;20192;-86
2022/09/23 14:16:11;;;;;;;3.67;1.70;;;23.90;91.60;;;;;;5097737;28;20156;-86
2022/09/23 14:18:40;;;;;;;3.20;1.97;;;23.90;91.30;;;;;;5079492;28;20183;-85
2022/09/23 14:21:24;;;;;;;3.00;2.70;;;23.30;91.90;;;;;;5079363;28;20218;-85
2022/09/23 14:23:50;;;;;;;3.73;1.90;;;23.70;92.10;;;;;;5079451;28;20237;-83
2022/09/23 14:26:17;;;;;;;4.60;1.97;;;23.70;91.80;;;;;;5097542;28;20164;-85
2022/09/23 14:28:43;;;;;;;3.23;1.70;;;23.80;92.30;;;;;;5078265;28;20180;-87
2022/09/23 14:31:08;;;;;;;3.67;2.43;;;23.90;92.20;;;;;;5097375;28;20191;-85
2022/09/23 14:33:39;;;;;;;4.33;2.60;;;23.80;92.60;;;;;;5081079;28;20681;-84
2022/09/23 14:38:49;;;;;;;5.20;2.90;;;23.80;91.00;;;;;;5098035;28;20530;-85
2022/09/23 14:39:11;;;;;;;3.97;2.63;;;23.20;91.80;;;;;;5098475;28;20188;-86
2022/09/23 14:41:40;;;;;;;4.17;2.20;;;23.00;92.40;;;;;;5098967;28;20556;-85
2022/09/23 14:44:17;;;;;;;3.77;1.90;;;22.60;92.20;;;;;;5097593;28;20189;-87
2022/09/23 14:46:56;;;;;;;3.30;1.87;;;22.50;92.90;;;;;;5080504;28;20167;-85
2022/09/23 14:49:22;;;;;;;3.33;1.80;;;22.10;92.10;;;;;;5080557;28;20177;-86
2022/09/23 14:51:59;;;;;;;4.30;2.13;;;22.10;93.40;;;;;;5081268;28;20216;-87
2022/09/23 14:54:35;;;;;;;5.63;1.83;;;22.00;92.00;;;;;;5079847;28;20197;-86
2022/09/23 14:57:21;;;;;;;9.50;1.83;;;21.80;92.90;;;;;;5080299;28;20241;-85
2022/09/23 15:00:04;;;;;;;2.90;2.20;;;21.80;92.90;;;;;;5097590;28;20206;-86
2022/09/23 15:02:39;;;;;;;4.40;2.10;;;21.20;93.20;;;;;;5097397;28;20191;-86
2022/09/23 15:05:19;;;;;;;3.20;2.17;;;20.80;93.60;;;;;;5079271;28;20189;-87
2022/09/23 15:07:50;;;;;;;5.33;2.40;;;20.10;93.90;;;;;;5079427;28;20173;-84
2022/09/23 15:10:18;;;;;;;5.47;2.23;;;19.50;94.20;;;;;;5079643;28;20189;-85
2022/09/23 15:12:47;;;;;;;6.53;2.67;;;19.00;95.50;;;;;;5079545;28;20669;-85
2022/09/23 15:15:14;;;;;;;4.97;2.57;;;18.70;95.70;;;;;;5096959;28;20172;-84
2022/09/23 15:17:40;;;;;;;6.37;2.07;;;18.60;95.60;;;;;;5080017;28;20183;-84
2022/09/23 15:20:17;;;;;;;4.63;2.60;;;18.50;96.00;;;;;;5099313;28;20174;-85
2022/09/23 15:22:50;;;;;;;2.77;2.00;;;18.30;96.70;;;;;;5082318;28;20175;-84
2022/09/23 15:25:29;;;;;;;6.57;2.87;;;18.20;97.20;;;;;;5104611;28;20172;-86
2022/09/23 15:28:10;;;;;;;5.17;2.60;;;18.00;96.80;;;;;;5086046;28;20549;-87
2022/09/23 15:30:37;;;;;;;4.47;2.67;;;17.90;97.60;;;;;;5093282;28;20164;-80
2022/09/23 15:33:03;;;;;;;9.73;5.13;;;17.80;97.40;;;;;;5102934;28;20224;-82
2022/09/23 15:35:31;;;;;;;37.27;27.67;;;17.60;98.30;;;;;;5103177;28;20196;-87
2022/09/23 15:37:59;;;;;;;13.40;10.80;;;17.50;99.10;;;;;;5104660;28;20160;-83
2022/09/23 15:40:33;;;;;;;4.17;3.40;;;17.40;99.30;;;;;;5098330;28;20567;-85
2022/09/23 15:43:17;;;;;;;6.90;3.67;;;17.30;98.30;;;;;;5100705;28;20241;-84
2022/09/23 15:45:51;;;;;;;13.00;9.83;;;17.30;98.80;;;;;;5081771;28;20168;-87
2022/09/23 15:48:23;;;;;;;16.53;9.73;;;17.30;99.60;;;;;;5082271;28;20543;-86
2022/09/23 15:50:50;;;;;;;23.13;17.47;;;17.20;99.60;;;;;;5082068;28;20169;-88
2022/09/23 15:53:25;;;;;;;31.37;17.70;;;17.10;99.10;;;;;;5082526;28;20568;-86
2022/09/23 15:55:52;;;;;;;15.60;9.97;;;17.10;99.90;;;;;;5100201;28;20156;-85
2022/09/23 15:58:19;;;;;;;31.23;18.07;;;17.00;99.90;;;;;;5082302;28;20538;-89
2022/09/23 16:00:47;;;;;;;13.73;9.10;;;16.90;99.90;;;;;;5099559;28;20565;-85
2022/09/23 16:03:15;;;;;;;20.83;13.50;;;17.00;99.90;;;;;;5100307;28;20262;-83
2022/09/23 16:05:46;;;;;;;14.23;9.77;;;16.90;99.90;;;;;;5098901;28;20184;-84
2022/09/23 16:08:12;;;;;;;29.67;17.23;;;16.90;99.90;;;;;;5100280;28;20638;-85
2022/09/23 16:10:37;;;;;;;12.03;6.80;;;16.80;99.90;;;;;;5081695;28;20225;-85
2022/09/23 16:13:07;;;;;;;18.53;12.57;;;16.70;99.90;;;;;;5081491;28;20564;-84
2022/09/23 16:15:33;;;;;;;10.87;8.83;;;16.70;99.90;;;;;;5082305;28;20172;-85
2022/09/23 16:17:59;;;;;;;10.70;6.50;;;16.70;99.90;;;;;;5081607;28;20243;-82
2022/09/23 16:20:28;;;;;;;6.50;4.40;;;16.70;99.90;;;;;;5081509;28;20168;-85
2022/09/23 16:22:57;;;;;;;5.63;3.67;;;16.50;99.90;;;;;;5082591;28;20698;-85
2022/09/23 16:25:26;;;;;;;5.23;3.30;;;16.50;99.90;;;;;;5081504;28;20554;-84
2022/09/23 16:27:54;;;;;;;3.60;3.30;;;16.40;99.90;;;;;;5081172;28;20233;-83
2022/09/23 16:30:21;;;;;;;5.03;4.30;;;16.40;99.90;;;;;;5099278;28;20172;-86
2022/09/23 16:32:47;;;;;;;6.60;5.10;;;16.30;99.90;;;;;;5081148;28;20251;-84
2022/09/23 16:35:14;;;;;;;7.23;4.80;;;16.20;99.90;;;;;;5099253;28;20642;-84
2022/09/23 16:37:45;;;;;;;7.93;4.83;;;16.10;99.90;;;;;;5099555;28;20566;-85
2022/09/23 16:40:14;;;;;;;7.33;5.60;;;16.10;99.90;;;;;;5081761;28;20172;-82
2022/09/23 16:42:40;;;;;;;9.03;5.20;;;;;;;;;;5099398;28;20165;-84
2022/09/23 16:45:08;;;;;;;8.20;5.93;;;15.90;99.90;;;;;;5081250;28;20176;-87
2022/09/23 16:47:43;;;;;;;10.03;5.47;;;15.70;99.90;;;;;;5080893;28;20229;-84
2022/09/23 16:50:10;;;;;;;10.80;5.00;;;15.70;99.90;;;;;;5080965;28;20176;-84
2022/09/23 16:52:36;;;;;;;7.03;5.10;;;15.60;99.90;;;;;;5103784;28;20259;-84
2022/09/23 16:55:01;;;;;;;13.03;5.30;;;15.40;99.90;;;;;;5087219;28;20199;-83
2022/09/23 16:57:28;;;;;;;7.57;4.63;;;15.30;99.90;;;;;;5087298;28;20177;-85
2022/09/23 17:05:23;;;;;;;9.53;6.57;;;15.00;99.90;;;;;;5108264;28;20183;-85
2022/09/23 17:07:48;;;;;;;13.33;7.17;;;14.80;99.90;;;;;;5109939;28;20176;-85
2022/09/23 17:10:17;;;;;;;10.43;6.50;;;14.70;99.90;;;;;;5109951;28;20187;-85
2022/09/23 17:12:43;;;;;;;11.97;6.47;;;14.60;99.90;;;;;;5093289;28;20212;-84
2022/09/23 17:15:09;;;;;;;11.47;6.77;;;14.50;99.90;;;;;;5093751;28;20307;-85
2022/09/23 17:17:36;;;;;;;11.50;6.40;;;14.40;99.90;;;;;;5088719;28;20176;-83
2022/09/23 17:20:04;;;;;;;11.43;6.67;;;14.30;99.90;;;;;;5090930;28;20180;-83
2022/09/23 17:22:29;;;;;;;10.77;6.97;;;14.10;99.90;;;;;;5092506;28;20176;-85
2022/09/23 17:24:56;;;;;;;16.87;8.03;;;14.00;99.90;;;;;;5090084;28;20238;-86
2022/09/23 17:27:23;;;;;;;15.97;9.20;;;13.90;99.90;;;;;;5088360;28;20183;-85
2022/09/23 17:29:49;;;;;;;19.67;12.73;;;13.80;99.90;;;;;;5088253;28;20702;-85
2022/09/23 17:32:16;;;;;;;26.17;14.87;;;;;;;;;;5104203;28;20271;-84
2022/09/23 17:34:43;;;;;;;26.10;17.07;;;13.60;99.90;;;;;;5104395;28;20341;-83
2022/09/23 17:37:09;;;;;;;26.03;14.20;;;13.60;99.90;;;;;;5086355;28;20176;-85
2022/09/23 17:39:35;;;;;;;19.93;13.37;;;13.50;99.90;;;;;;5086130;28;20179;-83
2022/09/23 17:42:02;;;;;;;15.80;9.57;;;13.40;99.90;;;;;;5107168;28;20649;-83
2022/09/23 17:44:28;;;;;;;17.90;7.90;;;13.30;99.90;;;;;;5090129;28;20223;-87
2022/09/23 17:46:53;;;;;;;11.37;7.63;;;13.30;99.90;;;;;;5089907;28;20192;-87
2022/09/23 17:49:20;;;;;;;12.60;8.63;;;13.20;99.90;;;;;;5090405;28;20180;-82
2022/09/23 17:51:46;;;;;;;12.73;8.70;;;13.10;99.90;;;;;;5091833;28;20199;-85
2022/09/23 17:54:13;;;;;;;12.87;8.87;;;13.10;99.90;;;;;;5106577;28;20270;-84
2022/09/23 17:56:40;;;;;;;14.33;11.20;;;13.00;99.90;;;;;;5084933;28;20191;-85
2022/09/23 17:59:05;;;;;;;17.50;12.77;;;13.00;99.90;;;;;;5102151;28;20236;-84
2022/09/23 18:01:31;;;;;;;18.20;13.00;;;12.90;99.90;;;;;;5083987;28;20682;-85
2022/09/23 18:03:59;;;;;;;17.60;12.37;;;12.90;99.90;;;;;;5083906;28;20216;-85
2022/09/23 18:06:34;;;;;;;15.60;11.63;;;12.90;99.90;;;;;;5102132;28;20186;-85
2022/09/23 18:09:02;;;;;;;17.93;12.40;;;12.80;99.90;;;;;;5082180;28;20176;-85
2022/09/23 18:11:30;;;;;;;17.67;13.00;;;12.80;99.90;;;;;;5083477;28;20196;-84
2022/09/23 18:14:02;;;;;;;15.47;11.10;;;12.80;99.90;;;;;;5082753;28;20214;-85
2022/09/23 18:16:30;;;;;;;20.27;12.47;;;12.70;99.90;;;;;;5083226;28;20244;-84
2022/09/23 18:18:58;;;;;;;21.57;11.53;;;12.60;99.90;;;;;;5100825;28;20160;-85
2022/09/23 18:21:26;;;;;;;15.77;10.13;;;12.60;99.90;;;;;;5101734;28;20198;-86
2022/09/23 18:23:52;;;;;;;17.33;11.93;;;12.50;99.90;;;;;;5100223;28;20199;-85
2022/09/23 18:26:20;;;;;;;19.97;12.30;;;12.40;99.90;;;;;;5099572;28;20172;-85
2022/09/23 18:28:46;;;;;;;23.87;17.33;;;12.30;99.90;;;;;;5081012;28;20178;-86
2022/09/23 18:31:13;;;;;;;19.57;13.43;;;12.30;99.90;;;;;;5080466;28;20185;-86
2022/09/23 18:33:39;;;;;;;27.70;18.53;;;12.20;99.90;;;;;;5099291;28;20218;-86
2022/09/23 18:36:06;;;;;;;30.20;19.43;;;12.20;99.90;;;;;;5099540;28;20168;-85
2022/09/23 18:38:32;;;;;;;16.70;11.20;;;12.20;99.90;;;;;;5081643;28;20222;-86
2022/09/23 18:40:59;;;;;;;23.73;14.47;;;12.20;99.90;;;;;;5099651;28;20180;-86
2022/09/23 18:43:32;;;;;;;20.03;13.70;;;12.10;99.90;;;;;;5099766;28;20192;-83
2022/09/23 18:46:04;;;;;;;15.10;10.10;;;12.10;99.90;;;;;;5082174;28;20186;-86
2022/09/23 18:51:17;;;;;;;11.70;9.00;;;12.10;99.90;;;;;;5101533;28;20168;-86
2022/09/23 18:53:44;;;;;;;12.00;8.67;;;12.10;99.90;;;;;;5082047;28;20188;-85
2022/09/23 18:56:17;;;;;;;11.43;8.00;;;12.10;99.90;;;;;;5082358;28;20190;-85
2022/09/23 18:58:50;;;;;;;12.20;8.47;;;12.10;99.90;;;;;;5100351;28;20192;-85
2022/09/23 19:01:16;;;;;;;11.30;8.93;;;12.10;99.90;;;;;;5081398;28;20192;-84
2022/09/23 19:03:42;;;;;;;13.07;7.90;;;12.00;99.90;;;;;;5099188;28;20196;-84
2022/09/23 19:06:17;;;;;;;17.83;8.97;;;12.00;99.90;;;;;;5084769;28;20175;-87
2022/09/23 19:08:44;;;;;;;8.93;8.03;;;12.00;99.90;;;;;;5083331;28;20521;-84
2022/09/23 19:11:12;;;;;;;9.53;7.97;;;11.90;99.90;;;;;;5083032;28;20571;-86
2022/09/23 19:13:39;;;;;;;8.73;7.77;;;11.80;99.90;;;;;;5100436;28;20206;-84
2022/09/23 19:16:13;;;;;;;10.83;8.63;;;11.80;99.90;;;;;;5101342;28;20175;-85
2022/09/23 19:18:40;;;;;;;13.50;9.27;;;11.70;99.90;;;;;;5083821;28;20203;-85
2022/09/23 19:21:09;;;;;;;11.97;8.57;;;11.60;99.90;;;;;;5085177;28;20595;-85
2022/09/23 19:23:35;;;;;;;13.87;9.17;;;11.60;99.90;;;;;;5085731;28;20542;-85
2022/09/23 19:26:07;;;;;;;15.23;10.00;;;11.60;99.90;;;;;;5100296;28;20201;-86
2022/09/23 19:28:33;;;;;;;14.30;9.47;;;11.50;99.90;;;;;;5101755;28;20180;-86